createdAt,value
2019-01-28T00:00:14.580Z,68.20
2019-01-28T00:01:16.418Z,68.30
2019-01-28T00:02:17.525Z,68.20
2019-01-28T00:03:18.757Z,68.30
2019-01-28T00:04:20.184Z,68.40
2019-01-28T00:05:21.200Z,68.00
2019-01-28T00:06:22.224Z,68.30
2019-01-28T00:07:23.249Z,68.00
2019-01-28T00:08:24.312Z,67.80
2019-01-28T00:09:25.332Z,67.90
2019-01-28T00:10:26.367Z,68.00
2019-01-28T00:11:27.376Z,68.20
2019-01-28T00:12:28.401Z,68.30
2019-01-28T00:13:29.452Z,68.30
2019-01-28T00:14:30.502Z,68.30
2019-01-28T00:15:31.518Z,68.30
2019-01-28T00:16:32.560Z,68.00
2019-01-28T00:17:33.589Z,69.10
2019-01-28T00:18:34.623Z,68.40
2019-01-28T00:19:35.640Z,68.30
2019-01-28T00:20:36.672Z,68.40
2019-01-28T00:21:37.687Z,68.30
2019-01-28T00:22:38.752Z,68.20
2019-01-28T00:23:39.800Z,68.30
2019-01-28T00:24:40.812Z,68.30
2019-01-28T00:25:41.937Z,68.30
2019-01-28T00:26:42.956Z,68.30
2019-01-28T00:27:43.979Z,68.40
2019-01-28T00:28:45.248Z,68.30
2019-01-28T00:29:46.260Z,68.10
2019-01-28T00:30:47.271Z,68.30
2019-01-28T00:31:48.287Z,67.90
2019-01-28T00:32:49.306Z,67.80
2019-01-28T00:33:50.386Z,67.50
2019-01-28T00:34:51.513Z,67.50
2019-01-28T00:35:52.532Z,67.40
2019-01-28T00:36:53.548Z,67.60
2019-01-28T00:37:54.560Z,67.60
2019-01-28T00:38:55.612Z,67.50
2019-01-28T00:39:56.628Z,67.50
2019-01-28T00:40:58.568Z,67.50
2019-01-28T00:42:19.867Z,67.30
2019-01-28T00:43:21.103Z,66.90
2019-01-28T00:44:22.318Z,66.80
2019-01-28T00:45:23.413Z,67.30
2019-01-28T00:46:24.436Z,67.00
2019-01-28T00:47:25.460Z,67.10
2019-01-28T00:48:26.507Z,67.30
2019-01-28T00:49:27.828Z,67.30
2019-01-28T00:50:28.840Z,67.50
2019-01-28T00:51:29.852Z,67.00
2019-01-28T00:52:30.876Z,67.00
2019-01-28T00:53:31.888Z,67.10
2019-01-28T00:54:32.939Z,67.20
2019-01-28T00:55:34.001Z,67.10
2019-01-28T00:56:35.016Z,66.80
2019-01-28T00:57:36.034Z,66.90
2019-01-28T00:58:37.050Z,66.90
2019-01-28T00:59:38.101Z,67.10
2019-01-28T01:00:39.112Z,66.90
2019-01-28T01:01:40.145Z,67.30
2019-01-28T01:02:41.153Z,67.30
2019-01-28T01:03:42.168Z,67.20
2019-01-28T01:04:43.216Z,68.20
2019-01-28T01:05:44.238Z,67.50
2019-01-28T01:06:45.266Z,67.70
2019-01-28T01:07:46.385Z,67.50
2019-01-28T01:08:47.400Z,67.70
2019-01-28T01:09:48.981Z,67.50
2019-01-28T01:10:50.009Z,67.60
2019-01-28T01:11:51.020Z,67.40
2019-01-28T01:12:52.053Z,67.50
2019-01-28T01:13:53.092Z,67.60
2019-01-28T01:14:54.257Z,67.60
2019-01-28T01:15:56.651Z,67.70
2019-01-28T01:16:57.661Z,67.60
2019-01-28T01:17:58.672Z,67.70
2019-01-28T01:18:59.701Z,67.70
2019-01-28T01:20:00.742Z,67.70
2019-01-28T01:21:01.861Z,67.90
2019-01-28T01:22:03.172Z,67.90
2019-01-28T01:23:04.187Z,67.80
2019-01-28T01:24:05.209Z,67.50
2019-01-28T01:25:28.031Z,67.50
2019-01-28T01:26:29.046Z,67.50
2019-01-28T01:27:30.065Z,67.60
2019-01-28T01:28:31.076Z,68.20
2019-01-28T01:29:32.104Z,67.80
2019-01-28T01:30:33.157Z,67.50
2019-01-28T01:31:34.168Z,67.60
2019-01-28T01:32:35.201Z,67.30
2019-01-28T01:33:36.233Z,67.30
2019-01-28T01:34:37.260Z,67.50
2019-01-28T01:35:38.296Z,67.50
2019-01-28T01:36:39.319Z,67.30
2019-01-28T01:37:40.569Z,67.60
2019-01-28T01:38:41.582Z,67.90
2019-01-28T01:39:42.600Z,67.50
2019-01-28T01:40:43.657Z,67.10
2019-01-28T01:41:44.684Z,67.00
2019-01-28T01:42:45.725Z,67.10
2019-01-28T01:43:46.982Z,67.00
2019-01-28T01:44:48.004Z,67.10
2019-01-28T01:45:49.058Z,67.00
2019-01-28T01:46:50.304Z,66.70
2019-01-28T01:47:51.323Z,66.60
2019-01-28T01:48:52.331Z,66.60
2019-01-28T01:49:53.343Z,66.60
2019-01-28T01:50:54.392Z,66.40
2019-01-28T01:51:55.416Z,66.50
2019-01-28T01:52:56.444Z,66.50
2019-01-28T01:53:57.456Z,66.40
2019-01-28T01:54:58.471Z,66.50
2019-01-28T01:55:59.524Z,66.30
2019-01-28T01:57:00.566Z,66.30
2019-01-28T01:58:01.587Z,66.40
2019-01-28T01:59:03.610Z,66.50
2019-01-28T02:00:13.637Z,66.30
2019-01-28T02:01:14.660Z,66.50
2019-01-28T02:02:15.720Z,66.40
2019-01-28T02:03:16.740Z,66.30
2019-01-28T02:04:18.016Z,66.50
2019-01-28T02:05:19.036Z,66.50
2019-01-28T02:06:20.092Z,66.40
2019-01-28T02:07:21.119Z,66.60
2019-01-28T02:08:22.188Z,66.60
2019-01-28T02:09:23.192Z,66.40
2019-01-28T02:10:24.212Z,66.50
2019-01-28T02:11:25.253Z,66.30
2019-01-28T02:12:26.272Z,66.50
2019-01-28T02:13:27.300Z,66.50
2019-01-28T02:14:28.372Z,66.30
2019-01-28T02:15:29.367Z,66.80
2019-01-28T02:16:30.412Z,66.70
2019-01-28T02:17:31.428Z,66.60
2019-01-28T02:18:32.444Z,66.80
2019-01-28T02:19:33.468Z,66.60
2019-01-28T02:20:34.480Z,66.60
2019-01-28T02:21:35.537Z,66.60
2019-01-28T02:22:36.561Z,66.70
2019-01-28T02:23:37.568Z,66.80
2019-01-28T02:24:38.606Z,66.90
2019-01-28T02:25:39.609Z,66.70
2019-01-28T02:26:40.995Z,66.90
2019-01-28T02:27:42.028Z,66.80
2019-01-28T02:28:43.076Z,66.90
2019-01-28T02:29:44.097Z,66.70
2019-01-28T02:30:45.121Z,66.90
2019-01-28T02:31:46.173Z,67.50
2019-01-28T02:32:47.187Z,67.00
2019-01-28T02:33:48.217Z,66.60
2019-01-28T02:34:49.221Z,66.60
2019-01-28T02:35:50.252Z,67.20
2019-01-28T02:36:51.301Z,66.50
2019-01-28T02:37:52.321Z,66.50
2019-01-28T02:38:53.333Z,66.40
2019-01-28T02:39:54.345Z,66.40
2019-01-28T02:40:55.363Z,66.60
2019-01-28T02:41:56.407Z,66.60
2019-01-28T02:42:57.427Z,66.60
2019-01-28T02:43:58.464Z,67.20
2019-01-28T02:44:59.480Z,66.40
2019-01-28T02:46:00.495Z,66.40
2019-01-28T02:47:01.531Z,66.40
2019-01-28T02:48:02.656Z,66.50
2019-01-28T02:49:03.676Z,66.50
2019-01-28T02:50:08.401Z,66.70
2019-01-28T02:51:09.420Z,66.80
2019-01-28T02:52:10.747Z,66.70
2019-01-28T02:53:11.843Z,67.40
2019-01-28T02:54:12.885Z,66.60
2019-01-28T02:55:14.003Z,66.80
2019-01-28T02:56:15.020Z,66.90
2019-01-28T02:57:16.045Z,66.80
2019-01-28T02:58:17.349Z,66.90
2019-01-28T02:59:18.369Z,66.70
2019-01-28T03:00:21.213Z,66.60
2019-01-28T03:01:22.230Z,66.60
2019-01-28T03:02:23.260Z,66.80
2019-01-28T03:03:24.548Z,66.70
2019-01-28T03:04:25.564Z,66.90
2019-01-28T03:05:26.588Z,66.80
2019-01-28T03:06:27.944Z,66.80
2019-01-28T03:07:28.989Z,66.80
2019-01-28T03:08:30.017Z,66.80
2019-01-28T03:09:31.024Z,66.70
2019-01-28T03:10:32.036Z,66.60
2019-01-28T03:11:33.053Z,66.60
2019-01-28T03:12:34.079Z,66.70
2019-01-28T03:13:35.112Z,66.50
2019-01-28T03:14:36.211Z,66.60
2019-01-28T03:15:37.607Z,66.40
2019-01-28T03:16:38.616Z,66.50
2019-01-28T03:17:39.668Z,66.60
2019-01-28T03:18:40.701Z,66.60
2019-01-28T03:19:41.732Z,66.70
2019-01-28T03:20:42.748Z,66.50
2019-01-28T03:21:43.766Z,66.40
2019-01-28T03:22:45.199Z,66.50
2019-01-28T03:23:46.227Z,66.50
2019-01-28T03:24:47.244Z,66.50
2019-01-28T03:25:48.264Z,66.30
2019-01-28T03:26:49.348Z,66.30
2019-01-28T03:27:50.718Z,66.40
2019-01-28T03:28:51.728Z,66.40
2019-01-28T03:29:52.764Z,66.20
2019-01-28T03:30:53.797Z,65.80
2019-01-28T03:31:54.887Z,66.10
2019-01-28T03:32:55.933Z,66.00
2019-01-28T03:33:56.941Z,66.00
2019-01-28T03:34:57.952Z,66.00
2019-01-28T03:35:58.985Z,65.20
2019-01-28T03:37:00.002Z,65.50
2019-01-28T03:38:01.052Z,65.50
2019-01-28T03:39:04.177Z,64.50
2019-01-28T03:40:08.697Z,65.00
2019-01-28T03:41:10.055Z,65.00
2019-01-28T03:42:11.074Z,65.00
2019-01-28T03:43:12.140Z,64.70
2019-01-28T03:44:13.170Z,64.60
2019-01-28T03:45:18.706Z,64.60
2019-01-28T03:46:19.739Z,64.60
2019-01-28T03:47:20.761Z,64.70
2019-01-28T03:48:22.041Z,64.60
2019-01-28T03:49:23.056Z,64.50
2019-01-28T03:50:24.072Z,64.90
2019-01-28T03:51:25.089Z,64.80
2019-01-28T03:52:26.336Z,64.90
2019-01-28T03:53:27.387Z,64.80
2019-01-28T03:54:28.404Z,64.60
2019-01-28T03:55:29.424Z,65.00
2019-01-28T03:56:30.440Z,65.10
2019-01-28T03:57:31.463Z,65.30
2019-01-28T03:58:32.513Z,65.30
2019-01-28T03:59:33.777Z,64.90
2019-01-28T04:00:34.892Z,65.20
2019-01-28T04:01:35.917Z,65.30
2019-01-28T04:02:36.927Z,64.80
2019-01-28T04:03:37.979Z,64.90
2019-01-28T04:04:38.997Z,64.80
2019-01-28T04:05:40.012Z,64.80
2019-01-28T04:06:41.031Z,65.10
2019-01-28T04:07:42.061Z,65.00
2019-01-28T04:08:43.133Z,64.70
2019-01-28T04:09:44.162Z,64.60
2019-01-28T04:10:45.272Z,64.50
2019-01-28T04:11:46.300Z,64.20
2019-01-28T04:12:47.413Z,64.50
2019-01-28T04:13:48.460Z,64.40
2019-01-28T04:14:49.520Z,64.10
2019-01-28T04:15:50.543Z,64.40
2019-01-28T04:16:51.560Z,64.20
2019-01-28T04:17:52.680Z,64.40
2019-01-28T04:18:53.713Z,64.30
2019-01-28T04:19:54.724Z,64.30
2019-01-28T04:20:55.976Z,64.20
2019-01-28T04:21:56.993Z,64.00
2019-01-28T04:22:58.009Z,64.00
2019-01-28T04:23:59.381Z,64.30
2019-01-28T04:25:00.412Z,64.00
2019-01-28T04:26:01.435Z,64.20
2019-01-28T04:27:02.642Z,64.20
2019-01-28T04:28:03.658Z,64.10
2019-01-28T04:29:04.706Z,64.00
2019-01-28T04:30:23.249Z,64.30
2019-01-28T04:31:24.281Z,64.10
2019-01-28T04:32:25.297Z,63.90
2019-01-28T04:33:26.320Z,64.30
2019-01-28T04:34:27.351Z,64.30
2019-01-28T04:35:28.639Z,64.40
2019-01-28T04:36:29.653Z,64.50
2019-01-28T04:37:30.666Z,64.40
2019-01-28T04:38:31.684Z,64.20
2019-01-28T04:39:32.970Z,64.40
2019-01-28T04:40:33.989Z,64.30
2019-01-28T04:41:35.011Z,64.30
2019-01-28T04:42:36.051Z,64.40
2019-01-28T04:43:37.137Z,64.30
2019-01-28T04:44:38.171Z,64.30
2019-01-28T04:45:39.201Z,64.60
2019-01-28T04:46:40.215Z,64.80
2019-01-28T04:47:41.341Z,64.70
2019-01-28T04:48:42.361Z,64.60
2019-01-28T04:49:43.417Z,64.70
2019-01-28T04:50:44.437Z,64.90
2019-01-28T04:51:45.481Z,64.50
2019-01-28T04:52:47.185Z,64.50
2019-01-28T04:53:48.196Z,64.20
2019-01-28T04:54:49.547Z,64.30
2019-01-28T04:55:50.564Z,63.80
2019-01-28T04:56:51.678Z,64.10
2019-01-28T04:57:52.691Z,64.20
2019-01-28T04:58:53.700Z,64.20
2019-01-28T04:59:54.751Z,64.00
2019-01-28T05:00:55.774Z,64.10
2019-01-28T05:01:56.787Z,63.90
2019-01-28T05:02:57.803Z,64.10
2019-01-28T05:03:58.834Z,64.00
2019-01-28T05:04:59.876Z,64.10
2019-01-28T05:06:00.892Z,63.80
2019-01-28T05:07:01.914Z,64.20
2019-01-28T05:08:03.138Z,65.10
2019-01-28T05:09:06.453Z,64.30
2019-01-28T05:10:10.589Z,64.10
2019-01-28T05:11:11.604Z,64.00
2019-01-28T05:12:12.626Z,63.90
2019-01-28T05:13:13.693Z,63.90
2019-01-28T05:14:14.756Z,64.00
2019-01-28T05:15:17.214Z,64.00
2019-01-28T05:16:18.314Z,64.00
2019-01-28T05:17:19.332Z,64.10
2019-01-28T05:18:20.351Z,63.90
2019-01-28T05:19:21.372Z,64.00
2019-01-28T05:20:22.834Z,64.10
2019-01-28T05:21:23.836Z,64.10
2019-01-28T05:22:24.849Z,64.10
2019-01-28T05:23:25.865Z,64.10
2019-01-28T05:24:26.877Z,64.20
2019-01-28T05:25:28.220Z,64.20
2019-01-28T05:26:29.236Z,64.50
2019-01-28T05:27:30.256Z,64.60
2019-01-28T05:28:31.278Z,64.60
2019-01-28T05:29:32.288Z,64.60
2019-01-28T05:30:33.612Z,65.00
2019-01-28T05:31:34.632Z,65.10
2019-01-28T05:32:35.652Z,65.10
2019-01-28T05:33:36.664Z,65.10
2019-01-28T05:34:37.690Z,65.00
2019-01-28T05:35:38.739Z,65.10
2019-01-28T05:36:39.999Z,65.90
2019-01-28T05:37:41.197Z,65.20
2019-01-28T05:38:42.232Z,65.00
2019-01-28T05:39:43.257Z,65.00
2019-01-28T05:40:44.293Z,65.10
2019-01-28T05:41:45.311Z,65.10
2019-01-28T05:42:46.345Z,65.10
2019-01-28T05:43:47.370Z,65.40
2019-01-28T05:44:50.100Z,65.70
2019-01-28T05:45:51.349Z,66.00
2019-01-28T05:46:52.372Z,66.00
2019-01-28T05:47:53.419Z,66.20
2019-01-28T05:48:54.508Z,66.40
2019-01-28T05:49:55.530Z,66.50
2019-01-28T05:50:56.593Z,66.60
2019-01-28T05:51:57.613Z,66.70
2019-01-28T05:52:58.620Z,67.10
2019-01-28T05:53:59.637Z,66.80
2019-01-28T05:55:00.660Z,66.80
2019-01-28T05:56:01.724Z,67.00
2019-01-28T05:57:03.073Z,67.00
2019-01-28T05:58:04.189Z,67.50
2019-01-28T05:59:05.229Z,67.30
2019-01-28T06:00:18.555Z,67.40
2019-01-28T06:01:19.667Z,67.80
2019-01-28T06:02:20.710Z,67.80
2019-01-28T06:03:21.733Z,67.80
2019-01-28T06:04:22.751Z,67.90
2019-01-28T06:05:23.768Z,67.90
2019-01-28T06:06:25.154Z,67.90
2019-01-28T06:07:26.488Z,67.90
2019-01-28T06:08:27.516Z,67.90
2019-01-28T06:09:28.532Z,67.90
2019-01-28T06:10:29.540Z,67.90
2019-01-28T06:11:30.595Z,67.90
2019-01-28T06:12:32.048Z,67.90
2019-01-28T06:13:33.080Z,67.90
2019-01-28T06:14:34.746Z,67.90
2019-01-28T06:15:35.920Z,67.90
2019-01-28T06:16:36.963Z,67.90
2019-01-28T06:17:38.995Z,68.20
2019-01-28T06:18:40.318Z,67.90
2019-01-28T06:19:41.337Z,67.90
2019-01-28T06:20:42.460Z,68.30
2019-01-28T06:21:43.509Z,68.60
2019-01-28T06:22:44.932Z,68.70
2019-01-28T06:23:45.942Z,68.90
2019-01-28T06:24:46.958Z,68.90
2019-01-28T06:25:47.986Z,69.00
2019-01-28T06:26:49.044Z,69.10
2019-01-28T06:27:50.062Z,68.90
2019-01-28T06:28:51.088Z,69.00
2019-01-28T06:29:52.221Z,69.00
2019-01-28T06:30:53.240Z,68.80
2019-01-28T06:31:54.301Z,69.20
2019-01-28T06:32:56.398Z,69.30
2019-01-28T06:33:57.429Z,69.30
2019-01-28T06:34:58.449Z,69.10
2019-01-28T06:35:59.464Z,69.20
2019-01-28T06:37:00.522Z,69.40
2019-01-28T06:38:01.531Z,69.30
2019-01-28T06:39:05.960Z,69.60
2019-01-28T06:40:10.700Z,69.50
2019-01-28T06:41:11.723Z,69.70
2019-01-28T06:42:14.477Z,69.60
2019-01-28T06:43:15.488Z,70.00
2019-01-28T06:44:16.508Z,69.90
2019-01-28T06:45:17.530Z,70.20
2019-01-28T06:46:18.553Z,70.30
2019-01-28T06:47:19.596Z,70.10
2019-01-28T06:48:20.617Z,70.10
2019-01-28T06:49:21.640Z,70.20
2019-01-28T06:50:22.848Z,70.00
2019-01-28T06:51:23.856Z,70.00
2019-01-28T06:52:24.909Z,70.00
2019-01-28T06:53:25.928Z,69.90
2019-01-28T06:54:26.935Z,70.00
2019-01-28T06:55:27.957Z,70.00
2019-01-28T06:56:29.016Z,70.20
2019-01-28T06:57:30.146Z,70.10
2019-01-28T06:58:31.156Z,70.20
2019-01-28T06:59:32.184Z,70.40
2019-01-28T07:00:34.307Z,70.30
2019-01-28T07:01:35.316Z,70.30
2019-01-28T07:02:36.376Z,70.40
2019-01-28T07:03:37.391Z,70.40
2019-01-28T07:04:38.409Z,70.30
2019-01-28T07:05:39.428Z,70.40
2019-01-28T07:06:40.512Z,70.20
2019-01-28T07:07:41.561Z,70.00
2019-01-28T07:08:43.859Z,69.70
2019-01-28T07:09:44.996Z,69.80
2019-01-28T07:10:46.021Z,69.90
2019-01-28T07:11:47.060Z,69.90
2019-01-28T07:12:48.129Z,69.60
2019-01-28T07:13:49.152Z,69.50
2019-01-28T07:14:50.172Z,69.60
2019-01-28T07:15:51.203Z,69.30
2019-01-28T07:16:52.259Z,69.30
2019-01-28T07:17:55.023Z,69.20
2019-01-28T07:18:56.224Z,69.90
2019-01-28T07:19:59.693Z,69.10
2019-01-28T07:21:00.712Z,69.00
2019-01-28T07:22:01.756Z,69.10
2019-01-28T07:23:03.075Z,69.40
2019-01-28T07:24:04.101Z,69.10
2019-01-28T07:25:05.312Z,69.70
2019-01-28T07:26:06.331Z,69.00
2019-01-28T07:27:07.355Z,68.90
2019-01-28T07:28:08.401Z,68.90
2019-01-28T07:29:09.425Z,69.00
2019-01-28T07:30:31.220Z,69.20
2019-01-28T07:31:32.255Z,69.30
2019-01-28T07:32:33.273Z,68.90
2019-01-28T07:33:34.338Z,68.90
2019-01-28T07:34:35.675Z,68.70
2019-01-28T07:35:36.706Z,69.10
2019-01-28T07:36:37.755Z,69.30
2019-01-28T07:37:38.848Z,69.10
2019-01-28T07:38:40.251Z,69.50
2019-01-28T07:39:41.641Z,69.70
2019-01-28T07:40:42.658Z,69.70
2019-01-28T07:41:43.682Z,70.00
2019-01-28T07:42:44.700Z,69.70
2019-01-28T07:43:45.747Z,69.90
2019-01-28T07:44:46.769Z,69.90
2019-01-28T07:45:47.789Z,69.70
2019-01-28T07:46:48.816Z,70.00
2019-01-28T07:47:49.847Z,70.00
2019-01-28T07:48:50.895Z,70.20
2019-01-28T07:49:51.917Z,69.90
2019-01-28T07:50:52.949Z,70.00
2019-01-28T07:51:54.062Z,70.00
2019-01-28T07:52:55.080Z,69.80
2019-01-28T07:53:56.128Z,70.00
2019-01-28T07:54:57.150Z,70.00
2019-01-28T07:55:58.172Z,70.30
2019-01-28T07:56:59.180Z,70.00
2019-01-28T07:58:00.502Z,70.30
2019-01-28T07:59:01.573Z,70.30
2019-01-28T08:00:06.287Z,70.40
2019-01-28T08:01:07.310Z,70.70
2019-01-28T08:02:08.326Z,70.60
2019-01-28T08:03:09.346Z,70.60
2019-01-28T08:04:10.401Z,70.50
2019-01-28T08:05:13.454Z,70.90
2019-01-28T08:06:14.676Z,69.90
2019-01-28T08:07:15.716Z,69.70
2019-01-28T08:08:16.728Z,70.00
2019-01-28T08:09:17.783Z,70.20
2019-01-28T08:10:19.501Z,70.00
2019-01-28T08:11:20.614Z,70.20
2019-01-28T08:12:21.684Z,69.80
2019-01-28T08:13:22.709Z,70.40
2019-01-28T08:14:23.817Z,70.10
2019-01-28T08:15:26.637Z,70.00
2019-01-28T08:16:27.668Z,69.80
2019-01-28T08:17:28.693Z,70.10
2019-01-28T08:18:29.718Z,70.30
2019-01-28T08:19:31.058Z,70.70
2019-01-28T08:20:32.116Z,69.90
2019-01-28T08:21:33.137Z,69.70
2019-01-28T08:22:34.164Z,70.10
2019-01-28T08:23:35.197Z,70.30
2019-01-28T08:27:43.480Z,70.10
2019-01-28T08:28:44.556Z,70.20
2019-01-28T08:29:45.565Z,70.20
2019-01-28T08:30:46.906Z,70.40
2019-01-28T08:31:47.925Z,70.80
2019-01-28T08:32:48.951Z,70.50
2019-01-28T08:33:49.949Z,70.40
2019-01-28T08:34:50.963Z,69.90
2019-01-28T08:35:51.984Z,70.00
2019-01-28T08:36:54.670Z,70.20
2019-01-28T08:37:55.812Z,70.40
2019-01-28T08:38:56.840Z,70.00
2019-01-28T08:39:57.885Z,69.70
2019-01-28T08:40:58.980Z,70.20
2019-01-28T08:42:00.007Z,70.00
2019-01-28T08:43:00.999Z,70.00
2019-01-28T08:44:02.559Z,69.80
2019-01-28T08:45:07.148Z,69.60
2019-01-28T08:46:08.184Z,69.80
2019-01-28T08:47:09.212Z,69.50
2019-01-28T08:48:17.864Z,69.10
2019-01-28T08:49:13.176Z,69.00
2019-01-28T08:50:20.176Z,68.50
2019-01-28T08:51:21.220Z,68.80
2019-01-28T08:52:22.233Z,68.40
2019-01-28T08:53:23.257Z,68.60
2019-01-28T08:54:24.268Z,68.70
2019-01-28T08:55:27.108Z,68.50
2019-01-28T08:56:28.220Z,68.00
2019-01-28T08:57:29.235Z,68.00
2019-01-28T08:58:30.252Z,68.10
2019-01-28T08:59:31.265Z,68.00
2019-01-28T09:00:34.496Z,68.00
2019-01-28T09:01:35.535Z,68.80
2019-01-28T09:02:36.595Z,68.10
2019-01-28T09:03:37.614Z,67.90
2019-01-28T09:04:38.719Z,67.80
2019-01-28T09:05:39.719Z,68.00
2019-01-28T09:06:40.732Z,67.90
2019-01-28T09:07:41.941Z,67.90
2019-01-28T09:08:43.465Z,67.90
2019-01-28T09:09:44.472Z,67.90
2019-01-28T09:10:45.763Z,67.90
2019-01-28T09:11:47.129Z,67.90
2019-01-28T09:12:48.228Z,67.90
2019-01-28T09:13:49.247Z,68.70
2019-01-28T09:14:50.287Z,67.90
2019-01-28T09:15:51.359Z,67.90
2019-01-28T09:16:52.442Z,67.70
2019-01-28T09:17:53.956Z,67.90
2019-01-28T09:18:55.068Z,67.90
2019-01-28T09:19:56.071Z,67.90
2019-01-28T09:20:57.078Z,67.90
2019-01-28T09:21:58.119Z,67.90
2019-01-28T09:22:59.123Z,67.80
2019-01-28T09:24:00.138Z,67.90
2019-01-28T09:25:01.354Z,67.90
2019-01-28T09:26:02.699Z,67.90
2019-01-28T09:27:03.823Z,67.90
2019-01-28T09:28:05.131Z,67.90
2019-01-28T09:29:06.208Z,68.40
2019-01-28T09:30:23.130Z,68.20
2019-01-28T09:31:24.127Z,67.90
2019-01-28T09:32:26.347Z,67.90
2019-01-28T09:33:27.608Z,67.80
2019-01-28T09:34:28.964Z,67.80
2019-01-28T09:35:30.051Z,68.00
2019-01-28T09:36:31.060Z,68.10
2019-01-28T09:37:32.475Z,68.00
2019-01-28T09:38:33.479Z,68.00
2019-01-28T09:39:36.865Z,67.80
2019-01-28T09:40:37.877Z,68.60
2019-01-28T09:41:38.892Z,67.70
2019-01-28T09:42:39.911Z,67.80
2019-01-28T09:43:40.931Z,67.90
2019-01-28T09:44:42.206Z,67.90
2019-01-28T09:45:43.383Z,67.90
2019-01-28T09:46:44.412Z,68.00
2019-01-28T09:47:45.435Z,67.90
2019-01-28T09:48:48.400Z,67.50
2019-01-28T09:49:49.417Z,67.40
2019-01-28T09:50:50.453Z,67.10
2019-01-28T09:51:51.715Z,67.00
2019-01-28T09:52:54.460Z,66.90
2019-01-28T09:53:55.504Z,66.80
2019-01-28T09:54:56.593Z,67.00
2019-01-28T09:55:57.604Z,66.60
2019-01-28T09:56:58.628Z,66.20
2019-01-28T09:57:59.783Z,66.40
2019-01-28T09:59:00.808Z,66.40
2019-01-28T10:00:06.341Z,66.50
2019-01-28T10:01:07.393Z,66.70
2019-01-28T10:02:08.704Z,66.60
2019-01-28T10:03:09.740Z,66.40
2019-01-28T10:04:10.756Z,66.50
2019-01-28T10:05:12.312Z,66.50
2019-01-28T10:06:13.337Z,66.60
2019-01-28T10:07:14.359Z,67.40
2019-01-28T10:08:15.506Z,66.20
2019-01-28T10:09:16.579Z,66.30
2019-01-28T10:10:19.118Z,66.40
2019-01-28T10:11:20.157Z,66.70
2019-01-28T10:12:21.545Z,66.50
2019-01-28T10:13:22.555Z,66.70
2019-01-28T10:14:23.580Z,67.10
2019-01-28T10:15:28.777Z,66.90
2019-01-28T10:16:28.445Z,66.50
2019-01-28T10:17:29.489Z,66.60
2019-01-28T10:18:30.501Z,66.90
2019-01-28T10:19:31.517Z,67.20
2019-01-28T10:20:38.951Z,67.10
2019-01-28T10:21:40.268Z,66.70
2019-01-28T10:22:41.512Z,67.20
2019-01-28T10:23:42.522Z,68.10
2019-01-28T10:24:43.548Z,68.00
2019-01-28T10:25:44.964Z,67.50
2019-01-28T10:26:45.967Z,68.20
2019-01-28T10:27:47.216Z,68.10
2019-01-28T10:28:48.232Z,68.00
2019-01-28T10:29:49.409Z,68.00
2019-01-28T10:30:50.619Z,68.00
2019-01-28T10:31:51.644Z,68.00
2019-01-28T10:32:53.067Z,68.00
2019-01-28T10:33:54.084Z,68.00
2019-01-28T10:34:55.100Z,68.00
2019-01-28T10:35:58.705Z,68.70
2019-01-28T10:36:59.777Z,68.30
2019-01-28T10:38:01.006Z,68.00
2019-01-28T10:39:05.820Z,68.20
2019-01-28T10:40:10.736Z,68.00
2019-01-28T10:41:11.849Z,68.00
2019-01-28T10:42:13.069Z,67.90
2019-01-28T10:43:14.189Z,68.20
2019-01-28T10:44:15.223Z,69.00
2019-01-28T10:45:16.640Z,68.80
2019-01-28T10:46:17.752Z,68.10
2019-01-28T10:47:18.764Z,68.00
2019-01-28T10:48:19.827Z,69.10
2019-01-28T10:49:21.026Z,69.10
2019-01-28T10:50:24.083Z,68.80
2019-01-28T10:51:25.089Z,68.80
2019-01-28T10:52:26.116Z,69.30
2019-01-28T10:53:27.158Z,70.30
2019-01-28T10:54:28.231Z,70.00
2019-01-28T10:55:29.265Z,69.20
2019-01-28T10:56:30.268Z,69.10
2019-01-28T10:57:31.285Z,68.90
2019-01-28T10:58:32.312Z,68.70
2019-01-28T10:59:33.340Z,69.20
2019-01-28T11:00:37.056Z,69.80
2019-01-28T11:01:38.105Z,70.00
2019-01-28T11:02:39.108Z,69.70
2019-01-28T11:03:40.139Z,69.90
2019-01-28T11:04:41.157Z,70.30
2019-01-28T11:05:42.532Z,70.10
2019-01-28T11:06:43.661Z,70.60
2019-01-28T11:07:44.768Z,69.80
2019-01-28T11:08:45.791Z,70.40
2019-01-28T11:09:46.942Z,70.50
2019-01-28T11:10:48.135Z,70.00
2019-01-28T11:11:49.247Z,70.50
2019-01-28T11:12:50.490Z,70.40
2019-01-28T11:13:51.630Z,71.10
2019-01-28T11:14:52.645Z,71.00
2019-01-28T11:15:53.710Z,69.90
2019-01-28T11:16:54.831Z,70.50
2019-01-28T11:17:58.250Z,70.20
2019-01-28T11:18:59.353Z,70.00
2019-01-28T11:20:00.579Z,70.60
2019-01-28T11:21:01.878Z,70.60
2019-01-28T11:22:03.257Z,71.30
2019-01-28T11:23:04.385Z,70.70
2019-01-28T11:24:05.455Z,70.50
2019-01-28T11:25:18.396Z,69.80
2019-01-28T11:26:19.575Z,69.70
2019-01-28T11:27:20.774Z,68.90
2019-01-28T11:28:21.865Z,69.00
2019-01-28T11:29:23.039Z,69.80
2019-01-28T11:30:28.972Z,69.30
2019-01-28T11:31:30.123Z,69.50
2019-01-28T11:32:31.191Z,69.10
2019-01-28T11:33:32.317Z,69.10
2019-01-28T11:34:33.496Z,69.50
2019-01-28T11:35:35.725Z,69.40
2019-01-28T11:36:37.208Z,69.50
2019-01-28T11:37:38.373Z,68.00
2019-01-28T11:38:39.534Z,69.10
2019-01-28T11:39:40.656Z,68.40
2019-01-28T11:40:41.892Z,69.10
2019-01-28T11:41:43.157Z,69.40
2019-01-28T11:42:44.371Z,69.80
2019-01-28T11:43:45.782Z,69.40
2019-01-28T11:44:46.962Z,68.00
2019-01-28T11:45:51.617Z,68.80
2019-01-28T11:46:52.796Z,68.10
2019-01-28T11:47:54.049Z,68.10
2019-01-28T11:48:55.156Z,68.10
2019-01-28T11:49:56.236Z,68.20
2019-01-28T11:50:57.337Z,67.60
2019-01-28T11:51:58.355Z,69.00
2019-01-28T11:52:59.783Z,68.30
2019-01-28T11:54:00.788Z,67.90
2019-01-28T11:55:02.005Z,68.20
2019-01-28T11:56:03.312Z,68.10
2019-01-28T11:57:04.380Z,68.20
2019-01-28T11:58:05.580Z,67.90
2019-01-28T11:59:06.596Z,68.10
2019-01-28T12:00:17.976Z,68.10
2019-01-28T12:01:20.380Z,68.80
2019-01-28T12:02:21.424Z,68.50
2019-01-28T12:03:22.427Z,68.90
2019-01-28T12:04:23.436Z,69.30
2019-01-28T12:05:24.756Z,69.30
2019-01-28T12:06:25.900Z,69.00
2019-01-28T12:07:27.012Z,69.00
2019-01-28T12:08:28.131Z,68.20
2019-01-28T12:09:29.151Z,68.10
2019-01-28T12:10:30.220Z,68.40
2019-01-28T12:11:31.304Z,68.30
2019-01-28T12:12:32.320Z,69.40
2019-01-28T12:13:33.336Z,69.60
2019-01-28T12:14:34.351Z,69.70
2019-01-28T12:15:35.376Z,70.10
2019-01-28T12:16:36.393Z,69.50
2019-01-28T12:17:37.404Z,69.40
2019-01-28T12:18:38.420Z,69.90
2019-01-28T12:19:39.437Z,70.20
2019-01-28T12:20:41.078Z,70.40
2019-01-28T12:21:42.080Z,70.80
2019-01-28T12:22:43.288Z,70.90
2019-01-28T12:23:44.327Z,70.70
2019-01-28T12:24:45.343Z,70.10
2019-01-28T12:25:46.388Z,70.30
2019-01-28T12:26:47.396Z,70.50
2019-01-28T12:27:48.508Z,70.30
2019-01-28T12:28:49.792Z,70.20
2019-01-28T12:29:50.802Z,70.20
2019-01-28T12:30:51.815Z,70.40
2019-01-28T12:31:52.829Z,70.40
2019-01-28T12:32:53.844Z,70.40
2019-01-28T12:33:54.863Z,70.70
2019-01-28T12:34:55.873Z,70.60
2019-01-28T12:35:56.897Z,70.60
2019-01-28T12:36:57.913Z,70.40
2019-01-28T12:38:00.026Z,70.80
2019-01-28T12:39:01.021Z,70.90
2019-01-28T12:40:05.252Z,71.20
2019-01-28T12:41:06.268Z,71.10
2019-01-28T12:42:07.284Z,71.10
2019-01-28T12:43:08.495Z,71.60
2019-01-28T12:44:09.500Z,71.70
2019-01-28T12:45:23.715Z,71.80
2019-01-28T12:46:24.775Z,72.40
2019-01-28T12:47:25.792Z,72.30
2019-01-28T12:48:26.819Z,71.90
2019-01-28T12:49:27.822Z,71.70
2019-01-28T12:50:28.839Z,72.50
2019-01-28T12:51:29.859Z,72.80
2019-01-28T12:52:30.867Z,72.30
2019-01-28T12:53:31.888Z,72.90
2019-01-28T12:54:33.012Z,72.30
2019-01-28T12:55:34.135Z,73.00
2019-01-28T12:56:35.160Z,73.50
2019-01-28T12:57:36.172Z,73.80
2019-01-28T12:58:37.188Z,73.70
2019-01-28T12:59:38.194Z,74.00
2019-01-28T13:00:41.124Z,73.60
2019-01-28T13:01:42.136Z,73.80
2019-01-28T13:02:43.149Z,73.70
2019-01-28T13:03:44.461Z,73.90
2019-01-28T13:04:45.476Z,74.50
2019-01-28T13:05:46.513Z,74.30
2019-01-28T13:06:47.536Z,74.30
2019-01-28T13:07:48.656Z,74.20
2019-01-28T13:08:49.676Z,74.40
2019-01-28T13:09:52.598Z,73.90
2019-01-28T13:10:53.719Z,74.10
2019-01-28T13:11:54.737Z,74.00
2019-01-28T13:12:55.759Z,74.00
2019-01-28T13:13:56.771Z,74.10